createdAt,value
2023-05-05T00:01:49.263Z,58.64
2023-05-05T00:04:18.095Z,58.28
2023-05-05T00:06:44.985Z,58.71
2023-05-05T00:09:11.773Z,58.21
2023-05-05T00:11:38.750Z,58.42
2023-05-05T00:14:05.659Z,58.15
2023-05-05T00:16:32.874Z,58.18
2023-05-05T00:18:59.385Z,57.89
2023-05-05T00:21:28.006Z,58.60
2023-05-05T00:23:54.617Z,58.76
2023-05-05T00:26:21.289Z,58.92
2023-05-05T00:28:48.188Z,58.75
2023-05-05T00:31:18.468Z,59.34
2023-05-05T00:33:47.271Z,58.86
2023-05-05T00:36:15.430Z,59.32
2023-05-05T00:38:42.367Z,59.81
2023-05-05T00:41:09.113Z,59.62
2023-05-05T00:43:36.318Z,59.87
2023-05-05T00:46:09.934Z,59.75
2023-05-05T00:48:36.375Z,59.59
2023-05-05T00:51:03.186Z,59.53
2023-05-05T00:53:29.896Z,59.95
2023-05-05T00:55:56.355Z,59.94
2023-05-05T00:58:23.334Z,59.95
2023-05-05T01:00:50.788Z,59.70
2023-05-05T01:03:17.437Z,60.15
2023-05-05T01:06:08.224Z,60.41
2023-05-05T01:08:54.058Z,59.83
2023-05-05T01:11:31.652Z,60.34
2023-05-05T01:14:14.610Z,60.48
2023-05-05T01:16:59.934Z,60.36
2023-05-05T01:19:56.780Z,60.36
2023-05-05T01:22:28.528Z,60.44
2023-05-05T01:25:04.365Z,61.12
2023-05-05T01:27:55.983Z,61.13
2023-05-05T01:30:34.895Z,61.17
2023-05-05T01:33:06.905Z,61.50
2023-05-05T01:35:42.615Z,61.19
2023-05-05T01:38:16.359Z,61.43
2023-05-05T01:40:48.959Z,61.29
2023-05-05T01:43:19.132Z,61.31
2023-05-05T01:45:47.942Z,61.79
2023-05-05T01:48:18.824Z,61.61
2023-05-05T01:50:48.373Z,61.39
2023-05-05T01:53:19.658Z,61.52
2023-05-05T01:55:48.845Z,61.57
2023-05-05T01:58:16.906Z,61.85
2023-05-05T02:00:44.862Z,61.50
2023-05-05T02:03:14.793Z,61.93
2023-05-05T02:05:43.155Z,61.76
2023-05-05T02:08:11.179Z,61.68
2023-05-05T02:10:41.344Z,62.06
2023-05-05T02:13:10.636Z,61.82
2023-05-05T02:15:38.350Z,61.81
2023-05-05T02:18:09.846Z,62.20
2023-05-05T02:20:38.682Z,62.05
2023-05-05T02:23:08.431Z,62.53
2023-05-05T02:25:42.343Z,62.73
2023-05-05T02:28:15.635Z,62.71
2023-05-05T02:30:44.598Z,62.20
2023-05-05T02:33:17.375Z,62.58
2023-05-05T02:35:46.043Z,62.02
2023-05-05T02:38:18.106Z,62.72
2023-05-05T02:40:47.433Z,62.56
2023-05-05T02:43:19.685Z,62.32
2023-05-05T02:45:46.394Z,62.17
2023-05-05T02:48:13.197Z,62.26
2023-05-05T02:50:39.979Z,62.47
2023-05-05T02:53:06.563Z,62.44
2023-05-05T02:55:54.681Z,62.90
2023-05-05T02:58:36.754Z,62.78
2023-05-05T03:01:16.434Z,62.76
2023-05-05T03:04:15.891Z,63.09
2023-05-05T03:06:48.023Z,63.02
2023-05-05T03:09:27.691Z,63.27
2023-05-05T03:12:02.434Z,62.89
2023-05-05T03:14:35.001Z,63.25
2023-05-05T03:17:03.740Z,63.31
2023-05-05T03:19:31.458Z,63.22
2023-05-05T03:21:58.365Z,63.35
2023-05-05T03:24:24.933Z,63.75
2023-05-05T03:26:51.737Z,63.71
2023-05-05T03:29:18.702Z,63.83
2023-05-05T03:31:45.270Z,64.12
2023-05-05T03:34:11.969Z,64.13
2023-05-05T03:36:38.952Z,64.33
2023-05-05T03:39:07.199Z,65.10
2023-05-05T03:41:34.491Z,64.74
2023-05-05T03:44:02.445Z,65.17
2023-05-05T03:46:29.604Z,64.81
2023-05-05T03:48:57.455Z,64.73
2023-05-05T03:51:24.802Z,65.31
2023-05-05T03:53:51.302Z,65.48
2023-05-05T03:56:18.010Z,65.73
2023-05-05T03:58:45.109Z,65.23
2023-05-05T04:01:12.329Z,65.32
2023-05-05T04:03:39.403Z,65.13
2023-05-05T04:06:06.140Z,65.33
2023-05-05T04:08:34.491Z,65.66
2023-05-05T04:11:02.825Z,65.33
2023-05-05T04:13:30.105Z,65.84
2023-05-05T04:15:57.785Z,65.59
2023-05-05T04:18:24.427Z,65.79
2023-05-05T04:20:53.365Z,66.33
2023-05-05T04:23:20.491Z,66.11
2023-05-05T04:25:47.581Z,66.61
2023-05-05T04:28:14.314Z,66.47
2023-05-05T04:30:40.983Z,66.17
2023-05-05T04:33:07.426Z,65.90
2023-05-05T04:35:34.223Z,65.91
2023-05-05T04:38:01.181Z,65.82
2023-05-05T04:40:27.582Z,66.13
2023-05-05T04:42:54.288Z,65.82
2023-05-05T04:45:21.209Z,66.04
2023-05-05T04:47:47.745Z,66.12
2023-05-05T04:50:14.498Z,66.23
2023-05-05T04:52:41.174Z,66.26
2023-05-05T04:55:11.774Z,66.41
2023-05-05T04:57:38.256Z,66.89
2023-05-05T05:00:05.487Z,66.63
2023-05-05T05:02:32.273Z,66.72
2023-05-05T05:04:59.267Z,66.84
2023-05-05T05:07:26.548Z,66.61
2023-05-05T05:09:53.253Z,66.72
2023-05-05T05:12:20.488Z,66.55
2023-05-05T05:14:47.208Z,66.74
2023-05-05T05:17:15.699Z,66.64
2023-05-05T05:19:42.198Z,66.78
2023-05-05T05:22:08.932Z,66.64
2023-05-05T05:24:36.399Z,66.19
2023-05-05T05:27:03.675Z,66.20
2023-05-05T05:29:32.323Z,65.61
2023-05-05T05:31:59.030Z,65.67
2023-05-05T05:34:26.083Z,65.38
2023-05-05T05:36:54.775Z,65.36
2023-05-05T05:39:22.192Z,64.26
2023-05-05T05:41:48.998Z,63.76
2023-05-05T05:44:15.414Z,63.27
2023-05-05T05:46:44.443Z,62.64
2023-05-05T05:49:11.507Z,62.34
2023-05-05T05:51:40.450Z,62.25
2023-05-05T05:54:06.964Z,61.86
2023-05-05T05:56:33.428Z,61.37
2023-05-05T05:59:01.668Z,61.49
2023-05-05T06:01:28.367Z,61.01
2023-05-05T06:03:54.924Z,60.88
2023-05-05T06:06:21.867Z,60.49
2023-05-05T06:08:48.395Z,59.70
2023-05-05T06:11:14.939Z,60.02
2023-05-05T06:13:41.982Z,59.60
2023-05-05T06:16:08.490Z,59.50
2023-05-05T06:18:37.326Z,59.04
2023-05-05T06:21:03.878Z,58.89
2023-05-05T06:23:30.381Z,59.62
2023-05-05T06:25:56.851Z,59.35
2023-05-05T06:28:23.544Z,59.05
2023-05-05T06:30:50.403Z,58.76
2023-05-05T06:33:17.172Z,57.56
2023-05-05T06:35:43.602Z,57.01
2023-05-05T06:38:10.041Z,55.81
2023-05-05T06:40:36.549Z,55.75
2023-05-05T06:43:03.253Z,56.06
2023-05-05T06:45:31.401Z,55.44
2023-05-05T06:47:58.371Z,55.08
2023-05-05T06:50:25.594Z,54.99
2023-05-05T06:52:53.349Z,54.87
2023-05-05T06:55:19.988Z,54.72
2023-05-05T06:57:46.454Z,54.33
2023-05-05T07:00:14.922Z,54.54
2023-05-05T07:02:43.487Z,54.62
2023-05-05T07:05:10.387Z,54.83
2023-05-05T07:07:37.314Z,54.31
2023-05-05T07:10:04.214Z,53.76
2023-05-05T07:12:31.457Z,53.60
2023-05-05T07:14:59.956Z,52.84
2023-05-05T07:17:27.275Z,53.14
2023-05-05T07:19:55.025Z,52.50
2023-05-05T07:22:22.488Z,52.46
2023-05-05T07:24:49.824Z,51.92
2023-05-05T07:27:17.557Z,52.24
2023-05-05T07:29:43.938Z,52.28
2023-05-05T07:32:10.765Z,51.18
2023-05-05T07:34:38.513Z,50.51
2023-05-05T07:37:05.184Z,51.23
2023-05-05T07:39:32.411Z,51.19
2023-05-05T07:41:58.983Z,50.12
2023-05-05T07:44:25.876Z,49.58
2023-05-05T07:46:53.066Z,49.81
2023-05-05T07:49:23.307Z,48.48
2023-05-05T07:51:50.302Z,49.33
2023-05-05T07:54:17.648Z,50.15
2023-05-05T07:56:44.148Z,49.38
2023-05-05T07:59:11.589Z,48.56
2023-05-05T08:01:39.633Z,49.54
2023-05-05T08:04:06.254Z,49.99
2023-05-05T08:06:33.107Z,50.52
2023-05-05T08:09:00.199Z,51.31
2023-05-05T08:11:29.025Z,51.28
2023-05-05T08:13:56.069Z,51.37
2023-05-05T08:16:22.541Z,51.20
2023-05-05T08:18:49.034Z,51.32
2023-05-05T08:21:15.465Z,51.07
2023-05-05T08:23:42.244Z,51.00
2023-05-05T08:26:09.757Z,50.92
2023-05-05T08:28:37.184Z,51.90
2023-05-05T08:31:07.189Z,51.96
2023-05-05T08:33:33.934Z,52.18
2023-05-05T08:36:00.491Z,52.82
2023-05-05T08:38:27.455Z,53.30
2023-05-05T08:40:54.235Z,52.84
2023-05-05T08:43:22.862Z,52.33
2023-05-05T08:45:52.165Z,51.93
2023-05-05T08:48:23.073Z,51.96
2023-05-05T08:50:59.978Z,51.20
2023-05-05T08:53:59.046Z,51.69
2023-05-05T08:56:47.244Z,52.29
2023-05-05T08:59:14.904Z,52.73
2023-05-05T09:01:41.982Z,52.91
2023-05-05T09:04:09.665Z,53.32
2023-05-05T09:06:37.542Z,53.78
2023-05-05T09:09:04.534Z,53.33
2023-05-05T09:11:32.293Z,53.06
2023-05-05T09:14:04.965Z,53.49
2023-05-05T09:16:31.868Z,53.29
2023-05-05T09:19:04.925Z,53.44
2023-05-05T09:21:32.054Z,53.33
2023-05-05T09:24:11.039Z,53.64
2023-05-05T09:26:45.828Z,54.01
2023-05-05T09:29:20.643Z,54.63
2023-05-05T09:32:08.838Z,54.03
2023-05-05T09:34:36.415Z,53.35
2023-05-05T09:37:03.447Z,54.18
2023-05-05T09:39:30.376Z,54.43
2023-05-05T09:41:57.543Z,54.99
2023-05-05T09:44:35.788Z,54.32
2023-05-05T09:47:07.197Z,55.02
2023-05-05T09:49:38.848Z,54.67
2023-05-05T09:52:16.464Z,54.52
2023-05-05T09:54:43.780Z,54.60
2023-05-05T09:57:33.172Z,55.48
2023-05-05T10:00:01.687Z,55.38
2023-05-05T10:02:34.937Z,54.94
2023-05-05T10:05:09.219Z,54.45
2023-05-05T10:07:38.892Z,53.60
2023-05-05T10:10:09.034Z,53.58
2023-05-05T10:12:40.120Z,53.40
2023-05-05T10:15:09.484Z,53.26
2023-05-05T10:17:41.383Z,53.63
2023-05-05T10:20:13.494Z,53.16
2023-05-05T10:22:45.677Z,52.91
2023-05-05T10:25:18.043Z,53.57
2023-05-05T10:27:46.928Z,52.84
2023-05-05T10:30:30.348Z,53.27
2023-05-05T10:33:38.755Z,53.78
2023-05-05T10:36:07.887Z,53.85
2023-05-05T10:38:36.384Z,54.14
2023-05-05T10:41:04.825Z,53.98
2023-05-05T10:43:32.133Z,53.95
2023-05-05T10:46:00.071Z,53.99
2023-05-05T10:48:40.177Z,54.71
2023-05-05T10:51:39.893Z,53.31
2023-05-05T10:54:18.516Z,53.13
2023-05-05T10:56:47.684Z,53.22
2023-05-05T10:59:40.447Z,53.14
2023-05-05T11:02:30.841Z,53.01
2023-05-05T11:05:08.748Z,52.26
2023-05-05T11:07:37.274Z,52.48
2023-05-05T11:10:06.353Z,52.53
2023-05-05T11:12:54.133Z,53.05
2023-05-05T11:15:26.892Z,53.69
2023-05-05T11:17:55.763Z,52.55
2023-05-05T11:20:39.681Z,53.65
2023-05-05T11:23:08.126Z,52.83
2023-05-05T11:25:40.819Z,52.88
2023-05-05T11:28:08.671Z,52.52
2023-05-05T11:30:56.134Z,52.72
2023-05-05T11:33:26.903Z,52.60
2023-05-05T11:36:04.246Z,52.91
2023-05-05T11:38:56.234Z,53.14
2023-05-05T11:41:44.532Z,53.19
2023-05-05T11:44:29.833Z,52.19
2023-05-05T11:47:01.352Z,53.09
2023-05-05T11:49:28.866Z,52.15
2023-05-05T11:52:03.837Z,52.35
2023-05-05T11:54:31.113Z,53.10
2023-05-05T11:57:02.082Z,52.52
2023-05-05T11:59:28.887Z,52.62
2023-05-05T12:01:55.634Z,52.43
2023-05-05T12:04:22.505Z,52.40
2023-05-05T12:06:49.783Z,51.27
2023-05-05T12:09:18.252Z,51.97
2023-05-05T12:11:50.933Z,53.18
2023-05-05T12:14:17.549Z,51.96
2023-05-05T12:17:09.953Z,52.16
2023-05-05T12:19:37.100Z,52.89
2023-05-05T12:22:06.426Z,51.88
2023-05-05T12:24:33.874Z,51.67
2023-05-05T12:27:11.582Z,51.14
2023-05-05T12:29:39.749Z,50.71
2023-05-05T12:32:06.568Z,50.07
2023-05-05T12:34:33.468Z,50.66
2023-05-05T12:37:01.588Z,51.70
2023-05-05T12:39:37.959Z,52.07
2023-05-05T12:42:06.472Z,51.99
2023-05-05T12:44:40.368Z,51.79
2023-05-05T12:47:08.302Z,51.10
2023-05-05T12:49:51.067Z,51.20
2023-05-05T12:52:19.145Z,50.88
2023-05-05T12:54:57.405Z,50.29
2023-05-05T12:57:25.048Z,51.26
2023-05-05T12:59:53.295Z,50.74
2023-05-05T13:02:21.059Z,50.49
2023-05-05T13:04:57.278Z,50.49
2023-05-05T13:07:24.217Z,50.23
2023-05-05T13:09:51.463Z,50.25
2023-05-05T13:12:18.929Z,49.78
2023-05-05T13:14:46.719Z,49.62
2023-05-05T13:17:14.647Z,50.83
2023-05-05T13:19:46.275Z,50.95
2023-05-05T13:22:16.914Z,50.09
2023-05-05T13:24:51.859Z,49.68
2023-05-05T13:27:21.138Z,49.51
2023-05-05T13:29:47.943Z,49.85
2023-05-05T13:32:14.572Z,49.91
2023-05-05T13:34:43.216Z,50.20
2023-05-05T13:37:10.971Z,50.11
2023-05-05T13:39:37.927Z,50.90
2023-05-05T13:42:04.702Z,50.45
2023-05-05T13:44:34.110Z,50.61
2023-05-05T13:47:01.040Z,50.32
2023-05-05T13:49:29.194Z,50.42
2023-05-05T13:51:56.270Z,50.65
2023-05-05T13:54:23.914Z,50.83
2023-05-05T13:56:50.700Z,51.00
2023-05-05T13:59:17.184Z,50.93
2023-05-05T14:01:43.965Z,51.11
2023-05-05T14:04:11.023Z,50.92
2023-05-05T14:06:37.832Z,50.56
2023-05-05T14:09:06.232Z,50.54
2023-05-05T14:11:32.945Z,50.91
2023-05-05T14:13:59.500Z,51.15
2023-05-05T14:16:26.252Z,51.46
2023-05-05T14:18:52.888Z,50.84
2023-05-05T14:21:19.350Z,50.22
2023-05-05T14:23:45.758Z,50.79
2023-05-05T14:26:12.520Z,50.14
2023-05-05T14:28:38.945Z,50.54
2023-05-05T14:31:05.414Z,50.82
2023-05-05T14:33:32.899Z,51.63
2023-05-05T14:36:00.531Z,54.14
2023-05-05T14:38:27.031Z,55.39
2023-05-05T14:40:53.698Z,56.86
2023-05-05T14:43:20.674Z,56.89
2023-05-05T14:45:47.292Z,56.04
2023-05-05T14:48:13.772Z,56.17
2023-05-05T14:50:42.655Z,55.33
2023-05-05T14:53:11.528Z,55.12
2023-05-05T14:55:39.545Z,54.87
2023-05-05T14:58:05.934Z,55.61
2023-05-05T15:00:32.441Z,55.10
2023-05-05T15:02:59.288Z,55.87
2023-05-05T15:05:25.835Z,55.96
2023-05-05T15:07:52.371Z,56.35
2023-05-05T15:10:21.863Z,56.20
2023-05-05T15:12:49.144Z,55.99
2023-05-05T15:15:15.667Z,56.19
2023-05-05T15:17:42.952Z,55.72
2023-05-05T15:20:11.447Z,56.24
2023-05-05T15:22:37.959Z,56.62
2023-05-05T15:25:07.013Z,57.90
2023-05-05T15:27:33.845Z,58.36
2023-05-05T15:30:00.817Z,58.11
2023-05-05T15:32:29.060Z,57.99
2023-05-05T15:34:56.327Z,57.95
2023-05-05T15:37:23.048Z,58.43
2023-05-05T15:39:49.478Z,58.35
2023-05-05T15:42:16.191Z,58.33
2023-05-05T15:44:43.140Z,57.68
2023-05-05T15:47:10.987Z,57.89
2023-05-05T15:49:37.428Z,58.19
2023-05-05T15:52:04.508Z,58.07
2023-05-05T15:54:31.768Z,58.42
2023-05-05T15:56:58.246Z,58.35
2023-05-05T15:59:26.286Z,58.44
2023-05-05T16:01:53.196Z,58.04
2023-05-05T16:04:20.368Z,58.13
2023-05-05T16:06:46.858Z,58.63
2023-05-05T16:09:14.336Z,58.48
2023-05-05T16:11:40.829Z,58.48
2023-05-05T16:14:07.541Z,57.97
2023-05-05T16:16:33.955Z,57.30
2023-05-05T16:19:01.113Z,57.68
2023-05-05T16:21:27.775Z,58.06
2023-05-05T16:23:54.326Z,58.23
2023-05-05T16:26:21.149Z,58.44
2023-05-05T16:28:47.851Z,58.82
2023-05-05T16:31:14.273Z,58.90
2023-05-05T16:33:43.829Z,58.80
2023-05-05T16:36:12.612Z,59.26
2023-05-05T16:38:40.856Z,59.33
2023-05-05T16:41:08.195Z,59.53
2023-05-05T16:43:37.378Z,59.87
2023-05-05T16:46:04.360Z,60.31
2023-05-05T16:48:30.903Z,60.28
2023-05-05T16:50:57.836Z,60.25
2023-05-05T16:53:24.592Z,60.87
2023-05-05T16:55:52.486Z,61.05
2023-05-05T16:58:20.381Z,60.99
2023-05-05T17:00:48.733Z,61.22
2023-05-05T17:03:16.574Z,61.22
2023-05-05T17:05:44.105Z,62.07
2023-05-05T17:08:17.251Z,61.60
2023-05-05T17:10:45.277Z,62.34
2023-05-05T17:13:13.292Z,62.43
2023-05-05T17:15:41.347Z,62.91
2023-05-05T17:18:08.912Z,63.03
2023-05-05T17:20:36.252Z,63.08
2023-05-05T17:23:03.227Z,63.58
2023-05-05T17:25:29.619Z,63.47
2023-05-05T17:27:56.186Z,63.57
2023-05-05T17:30:23.525Z,63.33
2023-05-05T17:32:50.278Z,63.51
2023-05-05T17:35:16.773Z,63.54
2023-05-05T17:37:43.840Z,63.51
2023-05-05T17:40:10.553Z,63.41
2023-05-05T17:42:38.508Z,63.05
2023-05-05T17:45:08.085Z,63.26
2023-05-05T17:47:35.125Z,62.97
2023-05-05T17:50:03.369Z,62.74
2023-05-05T17:52:29.942Z,62.85
2023-05-05T17:54:56.827Z,63.08
2023-05-05T17:57:23.345Z,63.18
2023-05-05T17:59:50.087Z,63.29
2023-05-05T18:02:16.579Z,63.45
2023-05-05T18:04:43.437Z,63.66
2023-05-05T18:07:11.903Z,63.83
2023-05-05T18:09:39.078Z,63.78
2023-05-05T18:12:06.240Z,63.89
2023-05-05T18:14:32.704Z,64.15
2023-05-05T18:16:59.401Z,64.09
2023-05-05T18:19:25.791Z,63.90
2023-05-05T18:21:54.359Z,63.76
2023-05-05T18:24:21.153Z,63.93
2023-05-05T18:26:51.992Z,64.37
2023-05-05T18:29:19.765Z,64.27
2023-05-05T18:31:48.736Z,64.18
2023-05-05T18:34:16.798Z,64.20
2023-05-05T18:36:44.697Z,63.95
2023-05-05T18:39:11.438Z,64.09
2023-05-05T18:41:38.007Z,64.31
2023-05-05T18:44:04.438Z,64.62
2023-05-05T18:46:31.435Z,64.75
2023-05-05T18:48:58.124Z,64.91
2023-05-05T18:51:24.640Z,64.93
2023-05-05T18:53:51.124Z,64.75
2023-05-05T18:56:17.656Z,64.40
2023-05-05T18:58:46.919Z,64.13
2023-05-05T19:01:13.475Z,65.04
2023-05-05T19:03:40.049Z,65.00
2023-05-05T19:06:07.054Z,64.95
2023-05-05T19:08:34.957Z,65.39
2023-05-05T19:11:01.398Z,65.44
2023-05-05T19:13:27.965Z,65.31
2023-05-05T19:15:57.018Z,65.52
2023-05-05T19:18:25.188Z,65.19
2023-05-05T19:20:53.184Z,65.56
2023-05-05T19:23:20.484Z,65.63
2023-05-05T19:25:46.934Z,65.90
2023-05-05T19:28:13.444Z,65.88
2023-05-05T19:30:42.288Z,65.90
2023-05-05T19:33:08.956Z,66.05
2023-05-05T19:35:37.631Z,66.73
2023-05-05T19:38:04.052Z,67.43
2023-05-05T19:40:37.975Z,67.23
2023-05-05T19:43:04.969Z,68.25
2023-05-05T19:45:32.149Z,68.06
2023-05-05T19:47:58.723Z,68.21
2023-05-05T19:50:26.784Z,68.94
2023-05-05T19:52:54.639Z,69.14
2023-05-05T19:55:22.040Z,69.45
2023-05-05T19:57:48.735Z,69.78
2023-05-05T20:00:15.398Z,70.06
2023-05-05T20:02:42.289Z,69.91
2023-05-05T20:05:09.269Z,70.68
2023-05-05T20:07:35.872Z,70.37
2023-05-05T20:10:02.336Z,71.18
2023-05-05T20:12:28.795Z,71.86
2023-05-05T20:14:55.533Z,71.78
2023-05-05T20:17:22.255Z,73.07
2023-05-05T20:19:49.040Z,73.32
2023-05-05T20:22:15.548Z,74.35
2023-05-05T20:24:42.275Z,76.33
2023-05-05T20:27:08.875Z,77.44
2023-05-05T20:29:35.690Z,78.76
2023-05-05T20:32:02.121Z,80.39
2023-05-05T20:34:28.630Z,82.08
2023-05-05T20:36:55.096Z,83.08
2023-05-05T20:39:21.575Z,86.54
2023-05-05T20:41:48.861Z,87.37
2023-05-05T20:44:15.632Z,87.17
2023-05-05T20:46:43.220Z,88.95
2023-05-05T20:49:10.399Z,90.71
2023-05-05T20:51:36.869Z,92.86
2023-05-05T20:54:03.605Z,95.25
2023-05-05T20:56:30.023Z,97.59
2023-05-05T20:58:56.840Z,98.08
2023-05-05T21:01:24.113Z,100.00
2023-05-05T21:03:50.861Z,100.00
2023-05-05T21:06:19.943Z,100.00
2023-05-05T21:08:47.177Z,100.00
2023-05-05T21:11:13.959Z,100.00
2023-05-05T21:13:40.688Z,100.00
2023-05-05T21:16:09.350Z,100.00
2023-05-05T21:18:36.078Z,100.00
2023-05-05T21:21:02.832Z,100.00
2023-05-05T21:23:30.340Z,100.00
2023-05-05T21:25:56.798Z,100.00
2023-05-05T21:28:23.519Z,100.00
2023-05-05T21:31:10.396Z,100.00
2023-05-05T21:33:37.859Z,100.00
2023-05-05T21:36:06.610Z,100.00
2023-05-05T21:38:33.359Z,100.00
2023-05-05T21:41:00.045Z,100.00
2023-05-05T21:43:29.712Z,100.00
2023-05-05T21:46:04.878Z,100.00
2023-05-05T21:48:31.798Z,100.00
2023-05-05T21:50:58.255Z,100.00
2023-05-05T21:53:24.895Z,100.00
2023-05-05T21:55:51.668Z,100.00
2023-05-05T21:58:18.318Z,100.00
2023-05-05T22:00:45.049Z,100.00
2023-05-05T22:03:12.454Z,100.00
2023-05-05T22:05:38.945Z,100.00
2023-05-05T22:08:05.683Z,100.00
2023-05-05T22:10:32.429Z,100.00
2023-05-05T22:12:59.310Z,100.00
2023-05-05T22:15:32.620Z,100.00
2023-05-05T22:18:02.442Z,100.00
2023-05-05T22:20:29.434Z,100.00
2023-05-05T22:22:56.140Z,100.00
2023-05-05T22:25:23.425Z,100.00
2023-05-05T22:27:49.830Z,100.00
2023-05-05T22:30:16.291Z,100.00
2023-05-05T22:32:43.561Z,100.00
2023-05-05T22:35:10.926Z,100.00
2023-05-05T22:37:38.057Z,100.00
2023-05-05T22:40:05.284Z,100.00
2023-05-05T22:42:33.978Z,100.00
2023-05-05T22:45:01.348Z,100.00
2023-05-05T22:47:28.112Z,100.00
2023-05-05T22:49:54.762Z,100.00
2023-05-05T22:52:21.669Z,100.00
2023-05-05T22:54:48.160Z,100.00
2023-05-05T22:57:14.749Z,100.00
2023-05-05T22:59:41.139Z,100.00
2023-05-05T23:02:07.916Z,100.00
2023-05-05T23:04:34.686Z,100.00
2023-05-05T23:07:01.505Z,100.00
2023-05-05T23:09:28.851Z,100.00
2023-05-05T23:11:55.673Z,100.00
2023-05-05T23:14:22.576Z,100.00
2023-05-05T23:16:49.088Z,100.00
2023-05-05T23:19:15.547Z,100.00
2023-05-05T23:21:52.732Z,100.00
2023-05-05T23:24:20.911Z,100.00
2023-05-05T23:26:49.740Z,100.00
2023-05-05T23:29:16.395Z,100.00
2023-05-05T23:31:43.438Z,100.00
2023-05-05T23:34:11.281Z,100.00
2023-05-05T23:36:37.716Z,100.00
2023-05-05T23:39:04.538Z,100.00
2023-05-05T23:41:32.283Z,100.00
2023-05-05T23:43:59.978Z,100.00
2023-05-05T23:46:27.609Z,100.00
2023-05-05T23:48:54.595Z,100.00
2023-05-05T23:51:22.097Z,100.00
2023-05-05T23:53:49.908Z,100.00
2023-05-05T23:56:18.941Z,100.00
2023-05-05T23:58:45.519Z,100.00
